sensor_id;sensor_type;location;lat;lon;timestamp;temperature;humidity
21090;DHT22;10703;51.020;6.128;2022-08-11T00:01:27;19.70;99.90
21090;DHT22;10703;51.020;6.128;2022-08-11T00:03:56;19.70;99.90
21090;DHT22;10703;51.020;6.128;2022-08-11T00:06:32;19.70;99.90
21090;DHT22;10703;51.020;6.128;2022-08-11T00:09:03;19.60;99.90
21090;DHT22;10703;51.020;6.128;2022-08-11T00:11:33;19.60;99.90
21090;DHT22;10703;51.020;6.128;2022-08-11T00:14:02;19.60;99.90
21090;DHT22;10703;51.020;6.128;2022-08-11T00:16:30;19.50;99.90
21090;DHT22;10703;51.020;6.128;2022-08-11T00:18:57;19.50;99.90
21090;DHT22;10703;51.020;6.128;2022-08-11T00:21:25;19.50;99.90
21090;DHT22;10703;51.020;6.128;2022-08-11T00:24:13;19.50;99.90
21090;DHT22;10703;51.020;6.128;2022-08-11T00:26:46;19.40;99.90
21090;DHT22;10703;51.020;6.128;2022-08-11T00:29:12;19.30;99.90
21090;DHT22;10703;51.020;6.128;2022-08-11T00:31:48;19.30;99.90
21090;DHT22;10703;51.020;6.128;2022-08-11T00:34:21;19.30;99.90
21090;DHT22;10703;51.020;6.128;2022-08-11T00:37:00;19.10;99.90
21090;DHT22;10703;51.020;6.128;2022-08-11T00:39:27;19.10;99.90
21090;DHT22;10703;51.020;6.128;2022-08-11T00:45:23;18.80;99.90
21090;DHT22;10703;51.020;6.128;2022-08-11T00:50:42;18.80;99.90
21090;DHT22;10703;51.020;6.128;2022-08-11T00:53:38;18.50;99.90
21090;DHT22;10703;51.020;6.128;2022-08-11T00:59:36;18.30;99.90
21090;DHT22;10703;51.020;6.128;2022-08-11T01:02:17;18.20;99.90
21090;DHT22;10703;51.020;6.128;2022-08-11T01:07:50;17.90;99.90
21090;DHT22;10703;51.020;6.128;2022-08-11T01:10:53;17.90;99.90
21090;DHT22;10703;51.020;6.128;2022-08-11T01:20:06;17.70;99.90
21090;DHT22;10703;51.020;6.128;2022-08-11T01:29:15;17.30;99.90
21090;DHT22;10703;51.020;6.128;2022-08-11T01:32:00;17.50;99.90
21090;DHT22;10703;51.020;6.128;2022-08-11T01:40:18;17.50;99.90
21090;DHT22;10703;51.020;6.128;2022-08-11T01:46:00;17.40;99.90
21090;DHT22;10703;51.020;6.128;2022-08-11T01:49:09;17.40;99.90
21090;DHT22;10703;51.020;6.128;2022-08-11T01:52:25;17.30;99.90
21090;DHT22;10703;51.020;6.128;2022-08-11T01:55:25;17.20;99.90
21090;DHT22;10703;51.020;6.128;2022-08-11T01:58:04;17.20;99.90
21090;DHT22;10703;51.020;6.128;2022-08-11T02:00:44;17.10;99.90
21090;DHT22;10703;51.020;6.128;2022-08-11T02:09:10;17.00;99.90
21090;DHT22;10703;51.020;6.128;2022-08-11T02:11:39;17.00;99.90
21090;DHT22;10703;51.020;6.128;2022-08-11T02:23:03;17.00;99.90
21090;DHT22;10703;51.020;6.128;2022-08-11T02:26:21;17.20;99.90
21090;DHT22;10703;51.020;6.128;2022-08-11T02:32:04;17.00;99.90
21090;DHT22;10703;51.020;6.128;2022-08-11T02:35:35;17.00;99.90
21090;DHT22;10703;51.020;6.128;2022-08-11T02:41:25;16.90;99.90
21090;DHT22;10703;51.020;6.128;2022-08-11T02:44:23;16.70;99.90
21090;DHT22;10703;51.020;6.128;2022-08-11T02:49:55;16.70;99.90
21090;DHT22;10703;51.020;6.128;2022-08-11T02:55:29;16.60;99.90
21090;DHT22;10703;51.020;6.128;2022-08-11T02:58:54;16.40;99.90
21090;DHT22;10703;51.020;6.128;2022-08-11T03:01:50;16.40;99.90
21090;DHT22;10703;51.020;6.128;2022-08-11T03:05:11;16.40;99.90
21090;DHT22;10703;51.020;6.128;2022-08-11T03:13:18;16.60;99.90
21090;DHT22;10703;51.020;6.128;2022-08-11T03:16:20;16.50;99.90
21090;DHT22;10703;51.020;6.128;2022-08-11T03:22:24;16.30;99.90
21090;DHT22;10703;51.020;6.128;2022-08-11T03:25:02;16.30;99.90
21090;DHT22;10703;51.020;6.128;2022-08-11T03:27:51;16.30;99.90
21090;DHT22;10703;51.020;6.128;2022-08-11T03:31:15;16.20;99.90
21090;DHT22;10703;51.020;6.128;2022-08-11T03:33:26;16.30;99.90
21090;DHT22;10703;51.020;6.128;2022-08-11T03:39:05;16.00;99.90
21090;DHT22;10703;51.020;6.128;2022-08-11T04:06:52;15.90;99.90
21090;DHT22;10703;51.020;6.128;2022-08-11T04:15:43;15.80;99.90
21090;DHT22;10703;51.020;6.128;2022-08-11T04:18:54;15.80;99.90
21090;DHT22;10703;51.020;6.128;2022-08-11T04:24:53;15.90;99.90
21090;DHT22;10703;51.020;6.128;2022-08-11T04:30:29;15.90;99.90
21090;DHT22;10703;51.020;6.128;2022-08-11T04:45:39;15.50;99.90
21090;DHT22;10703;51.020;6.128;2022-08-11T04:48:13;15.60;99.90
21090;DHT22;10703;51.020;6.128;2022-08-11T05:01:00;16.00;99.90
21090;DHT22;10703;51.020;6.128;2022-08-11T05:07:46;16.20;99.90
21090;DHT22;10703;51.020;6.128;2022-08-11T05:13:09;16.40;99.90
21090;DHT22;10703;51.020;6.128;2022-08-11T05:16:06;16.50;99.90
21090;DHT22;10703;51.020;6.128;2022-08-11T05:18:53;16.50;99.90
21090;DHT22;10703;51.020;6.128;2022-08-11T05:21:53;16.70;99.90
21090;DHT22;10703;51.020;6.128;2022-08-11T05:24:46;16.80;99.90
21090;DHT22;10703;51.020;6.128;2022-08-11T05:28:27;17.00;99.90
21090;DHT22;10703;51.020;6.128;2022-08-11T05:30:45;17.00;99.90
21090;DHT22;10703;51.020;6.128;2022-08-11T05:33:51;17.00;99.90
21090;DHT22;10703;51.020;6.128;2022-08-11T05:37:03;17.20;99.90
21090;DHT22;10703;51.020;6.128;2022-08-11T05:39:56;17.40;99.90
21090;DHT22;10703;51.020;6.128;2022-08-11T05:42:49;17.40;99.90
21090;DHT22;10703;51.020;6.128;2022-08-11T05:45:35;17.60;99.90
21090;DHT22;10703;51.020;6.128;2022-08-11T05:48:33;17.70;99.90
21090;DHT22;10703;51.020;6.128;2022-08-11T05:51:20;17.90;99.90
21090;DHT22;10703;51.020;6.128;2022-08-11T05:54:20;18.10;99.90
21090;DHT22;10703;51.020;6.128;2022-08-11T05:57:07;18.20;99.90
21090;DHT22;10703;51.020;6.128;2022-08-11T05:59:59;18.40;99.90
21090;DHT22;10703;51.020;6.128;2022-08-11T06:02:27;18.60;99.90
21090;DHT22;10703;51.020;6.128;2022-08-11T06:04:56;18.80;99.90
21090;DHT22;10703;51.020;6.128;2022-08-11T06:07:28;19.10;99.90
21090;DHT22;10703;51.020;6.128;2022-08-11T06:10:31;19.30;99.90
21090;DHT22;10703;51.020;6.128;2022-08-11T06:13:00;19.40;99.90
21090;DHT22;10703;51.020;6.128;2022-08-11T06:15:31;19.50;99.90
21090;DHT22;10703;51.020;6.128;2022-08-11T06:18:01;19.80;99.90
21090;DHT22;10703;51.020;6.128;2022-08-11T06:20:30;19.70;99.90
21090;DHT22;10703;51.020;6.128;2022-08-11T06:23:04;19.80;99.90
21090;DHT22;10703;51.020;6.128;2022-08-11T06:25:35;19.90;99.90
21090;DHT22;10703;51.020;6.128;2022-08-11T06:28:06;20.10;99.90
21090;DHT22;10703;51.020;6.128;2022-08-11T06:30:39;20.30;99.90
21090;DHT22;10703;51.020;6.128;2022-08-11T06:33:17;20.40;99.90
21090;DHT22;10703;51.020;6.128;2022-08-11T06:35:50;20.50;99.90
21090;DHT22;10703;51.020;6.128;2022-08-11T06:41:32;20.80;99.90
21090;DHT22;10703;51.020;6.128;2022-08-11T06:46:42;21.10;99.90
21090;DHT22;10703;51.020;6.128;2022-08-11T06:49:10;21.30;99.90
21090;DHT22;10703;51.020;6.128;2022-08-11T06:52:03;21.40;99.90
21090;DHT22;10703;51.020;6.128;2022-08-11T06:54:35;21.50;99.90
21090;DHT22;10703;51.020;6.128;2022-08-11T06:57:05;21.60;99.90
21090;DHT22;10703;51.020;6.128;2022-08-11T06:59:56;21.70;99.90
21090;DHT22;10703;51.020;6.128;2022-08-11T07:03:09;22.10;99.90
21090;DHT22;10703;51.020;6.128;2022-08-11T07:05:57;22.50;99.90
21090;DHT22;10703;51.020;6.128;2022-08-11T07:08:33;23.20;99.90
21090;DHT22;10703;51.020;6.128;2022-08-11T07:11:48;23.80;99.90
21090;DHT22;10703;51.020;6.128;2022-08-11T07:14:42;23.80;99.90
21090;DHT22;10703;51.020;6.128;2022-08-11T07:17:36;24.10;99.90
21090;DHT22;10703;51.020;6.128;2022-08-11T07:20:05;24.70;99.90
21090;DHT22;10703;51.020;6.128;2022-08-11T07:22:57;24.90;99.90
21090;DHT22;10703;51.020;6.128;2022-08-11T07:25:45;25.70;99.00
21090;DHT22;10703;51.020;6.128;2022-08-11T07:28:33;26.70;98.10
21090;DHT22;10703;51.020;6.128;2022-08-11T07:31:34;28.00;96.20
21090;DHT22;10703;51.020;6.128;2022-08-11T07:34:26;27.80;96.20
21090;DHT22;10703;51.020;6.128;2022-08-11T07:36:56;28.40;94.80
21090;DHT22;10703;51.020;6.128;2022-08-11T07:39:35;28.40;94.40
21090;DHT22;10703;51.020;6.128;2022-08-11T07:42:06;28.80;94.40
21090;DHT22;10703;51.020;6.128;2022-08-11T07:44:35;28.70;93.70
21090;DHT22;10703;51.020;6.128;2022-08-11T07:47:25;28.30;93.70
21090;DHT22;10703;51.020;6.128;2022-08-11T07:50:11;28.50;93.10
21090;DHT22;10703;51.020;6.128;2022-08-11T07:52:57;28.50;92.80
21090;DHT22;10703;51.020;6.128;2022-08-11T07:55:25;28.30;92.40
21090;DHT22;10703;51.020;6.128;2022-08-11T07:58:13;28.90;91.80
21090;DHT22;10703;51.020;6.128;2022-08-11T08:01:12;29.40;91.00
21090;DHT22;10703;51.020;6.128;2022-08-11T08:04:03;28.90;90.80
21090;DHT22;10703;51.020;6.128;2022-08-11T08:06:49;29.00;91.20
21090;DHT22;10703;51.020;6.128;2022-08-11T08:09:35;29.20;90.50
21090;DHT22;10703;51.020;6.128;2022-08-11T08:12:23;29.00;90.50
21090;DHT22;10703;51.020;6.128;2022-08-11T08:15:13;28.70;90.40
21090;DHT22;10703;51.020;6.128;2022-08-11T08:18:01;28.90;89.70
21090;DHT22;10703;51.020;6.128;2022-08-11T08:20:49;29.10;89.80
21090;DHT22;10703;51.020;6.128;2022-08-11T08:23:18;29.00;89.10
21090;DHT22;10703;51.020;6.128;2022-08-11T08:25:59;29.70;89.50
21090;DHT22;10703;51.020;6.128;2022-08-11T08:28:27;30.10;88.50
21090;DHT22;10703;51.020;6.128;2022-08-11T08:30:58;30.50;87.60
21090;DHT22;10703;51.020;6.128;2022-08-11T08:33:27;30.90;86.40
21090;DHT22;10703;51.020;6.128;2022-08-11T08:36:00;31.60;85.30
21090;DHT22;10703;51.020;6.128;2022-08-11T08:38:49;30.80;86.20
21090;DHT22;10703;51.020;6.128;2022-08-11T08:41:23;30.30;85.60
21090;DHT22;10703;51.020;6.128;2022-08-11T08:43:53;31.20;85.20
21090;DHT22;10703;51.020;6.128;2022-08-11T08:46:27;31.20;83.60
21090;DHT22;10703;51.020;6.128;2022-08-11T08:48:59;31.00;83.60
21090;DHT22;10703;51.020;6.128;2022-08-11T08:51:27;31.30;83.20
21090;DHT22;10703;51.020;6.128;2022-08-11T08:54:32;32.70;81.80
21090;DHT22;10703;51.020;6.128;2022-08-11T08:57:04;32.60;80.40
21090;DHT22;10703;51.020;6.128;2022-08-11T08:59:36;31.80;81.20
21090;DHT22;10703;51.020;6.128;2022-08-11T09:02:17;31.50;81.10
21090;DHT22;10703;51.020;6.128;2022-08-11T09:05:02;32.00;81.30
21090;DHT22;10703;51.020;6.128;2022-08-11T09:07:30;32.80;80.30
21090;DHT22;10703;51.020;6.128;2022-08-11T09:10:07;32.60;79.60
21090;DHT22;10703;51.020;6.128;2022-08-11T09:12:35;32.60;80.00
21090;DHT22;10703;51.020;6.128;2022-08-11T09:15:05;32.80;79.80
21090;DHT22;10703;51.020;6.128;2022-08-11T09:17:47;32.40;79.00
21090;DHT22;10703;51.020;6.128;2022-08-11T09:20:21;32.50;79.70
21090;DHT22;10703;51.020;6.128;2022-08-11T09:22:49;32.30;79.40
21090;DHT22;10703;51.020;6.128;2022-08-11T09:25:58;32.60;79.40
21090;DHT22;10703;51.020;6.128;2022-08-11T09:28:45;32.80;78.30
21090;DHT22;10703;51.020;6.128;2022-08-11T09:31:13;33.60;78.00
21090;DHT22;10703;51.020;6.128;2022-08-11T09:33:41;34.10;76.50
21090;DHT22;10703;51.020;6.128;2022-08-11T09:36:10;34.40;76.00
21090;DHT22;10703;51.020;6.128;2022-08-11T09:38:56;35.10;75.40
21090;DHT22;10703;51.020;6.128;2022-08-11T09:41:42;35.00;74.20
21090;DHT22;10703;51.020;6.128;2022-08-11T09:44:33;35.40;73.20
21090;DHT22;10703;51.020;6.128;2022-08-11T09:49:45;35.20;72.50
21090;DHT22;10703;51.020;6.128;2022-08-11T09:52:14;36.30;71.50
21090;DHT22;10703;51.020;6.128;2022-08-11T09:54:46;35.80;70.20
21090;DHT22;10703;51.020;6.128;2022-08-11T09:57:17;35.60;69.50
21090;DHT22;10703;51.020;6.128;2022-08-11T10:00:07;36.20;68.60
21090;DHT22;10703;51.020;6.128;2022-08-11T10:02:42;35.80;67.70
21090;DHT22;10703;51.020;6.128;2022-08-11T10:05:10;35.90;68.30
21090;DHT22;10703;51.020;6.128;2022-08-11T10:07:56;35.20;68.10
21090;DHT22;10703;51.020;6.128;2022-08-11T10:10:24;35.20;68.20
21090;DHT22;10703;51.020;6.128;2022-08-11T10:12:58;35.20;65.70
21090;DHT22;10703;51.020;6.128;2022-08-11T10:15:25;36.10;65.40
21090;DHT22;10703;51.020;6.128;2022-08-11T10:18:18;35.50;66.50
21090;DHT22;10703;51.020;6.128;2022-08-11T10:21:16;35.70;65.90
21090;DHT22;10703;51.020;6.128;2022-08-11T10:23:43;36.40;63.10
21090;DHT22;10703;51.020;6.128;2022-08-11T10:26:31;37.20;62.80
21090;DHT22;10703;51.020;6.128;2022-08-11T10:32:22;37.10;61.40
21090;DHT22;10703;51.020;6.128;2022-08-11T10:35:23;36.90;60.50
21090;DHT22;10703;51.020;6.128;2022-08-11T10:37:53;35.80;63.10
21090;DHT22;10703;51.020;6.128;2022-08-11T10:40:37;36.30;62.10
21090;DHT22;10703;51.020;6.128;2022-08-11T10:43:06;35.50;63.10
21090;DHT22;10703;51.020;6.128;2022-08-11T10:45:41;36.70;62.30
21090;DHT22;10703;51.020;6.128;2022-08-11T10:48:29;36.80;61.50
21090;DHT22;10703;51.020;6.128;2022-08-11T10:50:57;36.60;61.30
21090;DHT22;10703;51.020;6.128;2022-08-11T10:53:58;37.20;60.90
21090;DHT22;10703;51.020;6.128;2022-08-11T10:56:43;36.20;61.50
21090;DHT22;10703;51.020;6.128;2022-08-11T10:59:28;36.20;61.90
21090;DHT22;10703;51.020;6.128;2022-08-11T11:01:56;36.20;61.00
21090;DHT22;10703;51.020;6.128;2022-08-11T11:05:01;36.10;60.70
21090;DHT22;10703;51.020;6.128;2022-08-11T11:07:40;36.40;61.40
21090;DHT22;10703;51.020;6.128;2022-08-11T11:10:10;37.10;60.70
21090;DHT22;10703;51.020;6.128;2022-08-11T11:12:41;36.70;60.50
21090;DHT22;10703;51.020;6.128;2022-08-11T11:15:30;37.00;60.30
21090;DHT22;10703;51.020;6.128;2022-08-11T11:18:27;38.00;59.70
21090;DHT22;10703;51.020;6.128;2022-08-11T11:21:14;38.20;58.80
21090;DHT22;10703;51.020;6.128;2022-08-11T11:23:52;37.70;59.90
21090;DHT22;10703;51.020;6.128;2022-08-11T11:26:38;39.00;59.20
21090;DHT22;10703;51.020;6.128;2022-08-11T11:32:22;36.10;60.20
21090;DHT22;10703;51.020;6.128;2022-08-11T11:35:03;37.20;60.10
21090;DHT22;10703;51.020;6.128;2022-08-11T11:37:36;37.10;59.70
21090;DHT22;10703;51.020;6.128;2022-08-11T11:40:12;36.90;60.00
21090;DHT22;10703;51.020;6.128;2022-08-11T11:42:41;38.00;59.10
21090;DHT22;10703;51.020;6.128;2022-08-11T11:45:11;38.80;58.90
21090;DHT22;10703;51.020;6.128;2022-08-11T11:47:50;38.10;58.70
21090;DHT22;10703;51.020;6.128;2022-08-11T11:50:31;37.30;58.90
21090;DHT22;10703;51.020;6.128;2022-08-11T11:53:03;37.80;58.50
21090;DHT22;10703;51.020;6.128;2022-08-11T11:55:30;37.50;58.60
21090;DHT22;10703;51.020;6.128;2022-08-11T11:58:01;37.40;58.30
21090;DHT22;10703;51.020;6.128;2022-08-11T12:00:48;37.30;59.70
21090;DHT22;10703;51.020;6.128;2022-08-11T12:03:35;38.60;58.20
21090;DHT22;10703;51.020;6.128;2022-08-11T12:06:03;38.60;57.60
21090;DHT22;10703;51.020;6.128;2022-08-11T12:08:31;38.80;56.90
21090;DHT22;10703;51.020;6.128;2022-08-11T12:11:03;38.60;56.60
21090;DHT22;10703;51.020;6.128;2022-08-11T12:13:51;38.80;55.90
21090;DHT22;10703;51.020;6.128;2022-08-11T12:16:20;38.80;56.20
21090;DHT22;10703;51.020;6.128;2022-08-11T12:19:08;40.20;55.70
21090;DHT22;10703;51.020;6.128;2022-08-11T12:21:38;39.60;55.50
21090;DHT22;10703;51.020;6.128;2022-08-11T12:24:31;40.40;55.50
21090;DHT22;10703;51.020;6.128;2022-08-11T12:27:16;40.30;55.20
21090;DHT22;10703;51.020;6.128;2022-08-11T12:30:09;40.00;55.40
21090;DHT22;10703;51.020;6.128;2022-08-11T12:32:37;39.80;54.70
21090;DHT22;10703;51.020;6.128;2022-08-11T12:35:06;39.90;54.70
21090;DHT22;10703;51.020;6.128;2022-08-11T12:37:44;40.50;54.50
21090;DHT22;10703;51.020;6.128;2022-08-11T12:40:13;38.90;54.50
21090;DHT22;10703;51.020;6.128;2022-08-11T12:43:21;39.40;54.70
21090;DHT22;10703;51.020;6.128;2022-08-11T12:46:09;38.40;54.00
21090;DHT22;10703;51.020;6.128;2022-08-11T12:48:43;36.90;55.10
21090;DHT22;10703;51.020;6.128;2022-08-11T12:51:33;37.40;55.50
21090;DHT22;10703;51.020;6.128;2022-08-11T12:54:53;39.10;55.30
21090;DHT22;10703;51.020;6.128;2022-08-11T12:57:35;40.50;54.30
21090;DHT22;10703;51.020;6.128;2022-08-11T13:00:22;40.10;54.60
21090;DHT22;10703;51.020;6.128;2022-08-11T13:03:10;40.50;54.00
21090;DHT22;10703;51.020;6.128;2022-08-11T13:05:58;40.40;54.00
21090;DHT22;10703;51.020;6.128;2022-08-11T13:08:27;39.40;54.70
21090;DHT22;10703;51.020;6.128;2022-08-11T13:10:57;39.40;54.70
21090;DHT22;10703;51.020;6.128;2022-08-11T13:13:50;40.40;55.00
21090;DHT22;10703;51.020;6.128;2022-08-11T13:16:29;40.50;54.80
21090;DHT22;10703;51.020;6.128;2022-08-11T13:18:57;39.50;53.90
21090;DHT22;10703;51.020;6.128;2022-08-11T13:21:27;39.40;53.60
21090;DHT22;10703;51.020;6.128;2022-08-11T13:23:55;39.70;53.90
21090;DHT22;10703;51.020;6.128;2022-08-11T13:26:33;39.20;54.20
21090;DHT22;10703;51.020;6.128;2022-08-11T13:29:16;39.90;54.10
21090;DHT22;10703;51.020;6.128;2022-08-11T13:31:44;39.50;54.30
21090;DHT22;10703;51.020;6.128;2022-08-11T13:34:11;40.00;53.80
21090;DHT22;10703;51.020;6.128;2022-08-11T13:36:40;40.40;53.50
21090;DHT22;10703;51.020;6.128;2022-08-11T13:39:07;40.70;53.10
21090;DHT22;10703;51.020;6.128;2022-08-11T13:41:35;41.90;53.00
21090;DHT22;10703;51.020;6.128;2022-08-11T13:44:11;42.10;52.40
21090;DHT22;10703;51.020;6.128;2022-08-11T13:46:43;41.50;52.30
21090;DHT22;10703;51.020;6.128;2022-08-11T13:49:10;42.00;52.90
21090;DHT22;10703;51.020;6.128;2022-08-11T13:51:41;41.50;52.60
21090;DHT22;10703;51.020;6.128;2022-08-11T13:54:11;42.10;52.00
21090;DHT22;10703;51.020;6.128;2022-08-11T13:56:43;41.50;52.80
21090;DHT22;10703;51.020;6.128;2022-08-11T13:59:12;41.20;53.00
21090;DHT22;10703;51.020;6.128;2022-08-11T14:01:54;41.30;52.80
21090;DHT22;10703;51.020;6.128;2022-08-11T14:04:53;40.50;53.30
21090;DHT22;10703;51.020;6.128;2022-08-11T14:07:23;40.90;52.90
21090;DHT22;10703;51.020;6.128;2022-08-11T14:09:58;40.90;52.90
21090;DHT22;10703;51.020;6.128;2022-08-11T14:12:28;41.10;52.90
21090;DHT22;10703;51.020;6.128;2022-08-11T14:15:19;42.00;52.50
21090;DHT22;10703;51.020;6.128;2022-08-11T14:17:53;41.50;51.80
21090;DHT22;10703;51.020;6.128;2022-08-11T14:20:22;41.50;51.40
21090;DHT22;10703;51.020;6.128;2022-08-11T14:23:06;41.60;51.40
21090;DHT22;10703;51.020;6.128;2022-08-11T14:25:33;41.50;51.60
21090;DHT22;10703;51.020;6.128;2022-08-11T14:28:20;41.60;51.20
21090;DHT22;10703;51.020;6.128;2022-08-11T14:31:01;42.00;51.20
21090;DHT22;10703;51.020;6.128;2022-08-11T14:33:31;39.60;53.00
21090;DHT22;10703;51.020;6.128;2022-08-11T14:36:21;40.50;52.40
21090;DHT22;10703;51.020;6.128;2022-08-11T14:38:50;40.90;51.00
21090;DHT22;10703;51.020;6.128;2022-08-11T14:41:19;41.40;51.10
21090;DHT22;10703;51.020;6.128;2022-08-11T14:44:25;40.60;51.40
21090;DHT22;10703;51.020;6.128;2022-08-11T14:47:12;40.60;51.40
21090;DHT22;10703;51.020;6.128;2022-08-11T14:49:53;40.00;51.70
21090;DHT22;10703;51.020;6.128;2022-08-11T14:52:36;41.30;51.30
21090;DHT22;10703;51.020;6.128;2022-08-11T14:55:04;42.00;51.40
21090;DHT22;10703;51.020;6.128;2022-08-11T14:57:50;41.70;51.00
21090;DHT22;10703;51.020;6.128;2022-08-11T15:00:22;41.10;51.30
21090;DHT22;10703;51.020;6.128;2022-08-11T15:02:50;42.00;50.80
21090;DHT22;10703;51.020;6.128;2022-08-11T15:08:28;42.70;50.70
21090;DHT22;10703;51.020;6.128;2022-08-11T15:11:16;42.80;49.90
21090;DHT22;10703;51.020;6.128;2022-08-11T15:14:04;42.00;50.30
21090;DHT22;10703;51.020;6.128;2022-08-11T15:16:32;42.30;50.80
21090;DHT22;10703;51.020;6.128;2022-08-11T15:19:19;43.10;50.20
21090;DHT22;10703;51.020;6.128;2022-08-11T15:21:48;43.40;49.80
21090;DHT22;10703;51.020;6.128;2022-08-11T15:24:34;43.50;49.60
21090;DHT22;10703;51.020;6.128;2022-08-11T15:27:10;43.20;49.10
21090;DHT22;10703;51.020;6.128;2022-08-11T15:29:58;43.10;49.70
21090;DHT22;10703;51.020;6.128;2022-08-11T15:33:03;42.90;49.70
21090;DHT22;10703;51.020;6.128;2022-08-11T15:35:51;42.00;50.10
21090;DHT22;10703;51.020;6.128;2022-08-11T15:38:48;41.40;50.00
21090;DHT22;10703;51.020;6.128;2022-08-11T15:41:25;41.60;49.40
21090;DHT22;10703;51.020;6.128;2022-08-11T15:44:26;40.30;49.90
21090;DHT22;10703;51.020;6.128;2022-08-11T15:47:40;41.00;50.20
21090;DHT22;10703;51.020;6.128;2022-08-11T15:50:15;38.80;51.10
21090;DHT22;10703;51.020;6.128;2022-08-11T15:52:51;40.00;50.80
21090;DHT22;10703;51.020;6.128;2022-08-11T15:55:20;40.00;51.10
21090;DHT22;10703;51.020;6.128;2022-08-11T15:57:49;40.90;50.90
21090;DHT22;10703;51.020;6.128;2022-08-11T16:00:37;40.90;51.20
21090;DHT22;10703;51.020;6.128;2022-08-11T16:03:33;41.90;51.20
21090;DHT22;10703;51.020;6.128;2022-08-11T16:06:39;42.40;50.60
21090;DHT22;10703;51.020;6.128;2022-08-11T16:09:14;42.60;50.90
21090;DHT22;10703;51.020;6.128;2022-08-11T16:11:45;41.30;49.90
21090;DHT22;10703;51.020;6.128;2022-08-11T16:14:14;41.60;50.20
21090;DHT22;10703;51.020;6.128;2022-08-11T16:17:01;41.70;50.10
21090;DHT22;10703;51.020;6.128;2022-08-11T16:19:28;39.70;50.20
21090;DHT22;10703;51.020;6.128;2022-08-11T16:22:04;39.00;50.40
21090;DHT22;10703;51.020;6.128;2022-08-11T16:24:35;38.30;51.30
21090;DHT22;10703;51.020;6.128;2022-08-11T16:27:23;38.90;51.40
21090;DHT22;10703;51.020;6.128;2022-08-11T16:29:51;39.50;51.20
21090;DHT22;10703;51.020;6.128;2022-08-11T16:32:20;40.20;51.00
21090;DHT22;10703;51.020;6.128;2022-08-11T16:34:54;40.40;50.20
21090;DHT22;10703;51.020;6.128;2022-08-11T16:37:40;39.90;50.40
21090;DHT22;10703;51.020;6.128;2022-08-11T16:40:27;40.90;50.50
21090;DHT22;10703;51.020;6.128;2022-08-11T16:42:57;40.30;50.10
21090;DHT22;10703;51.020;6.128;2022-08-11T16:45:43;39.10;50.30
21090;DHT22;10703;51.020;6.128;2022-08-11T16:48:34;39.60;51.10
21090;DHT22;10703;51.020;6.128;2022-08-11T16:51:06;39.80;51.50
21090;DHT22;10703;51.020;6.128;2022-08-11T16:53:34;40.30;51.50
21090;DHT22;10703;51.020;6.128;2022-08-11T16:56:26;40.30;51.50
21090;DHT22;10703;51.020;6.128;2022-08-11T16:58:55;40.40;51.20
21090;DHT22;10703;51.020;6.128;2022-08-11T17:01:55;39.50;50.80
21090;DHT22;10703;51.020;6.128;2022-08-11T17:04:37;39.80;50.90
21090;DHT22;10703;51.020;6.128;2022-08-11T17:07:25;39.90;50.90
21090;DHT22;10703;51.020;6.128;2022-08-11T17:10:25;39.80;51.00
21090;DHT22;10703;51.020;6.128;2022-08-11T17:13:23;39.60;51.60
21090;DHT22;10703;51.020;6.128;2022-08-11T17:15:55;39.40;52.30
21090;DHT22;10703;51.020;6.128;2022-08-11T17:18:57;39.00;51.70
21090;DHT22;10703;51.020;6.128;2022-08-11T17:21:28;39.00;52.20
21090;DHT22;10703;51.020;6.128;2022-08-11T17:24:04;38.80;52.20
21090;DHT22;10703;51.020;6.128;2022-08-11T17:29:40;39.30;52.70
21090;DHT22;10703;51.020;6.128;2022-08-11T17:32:29;38.50;52.50
21090;DHT22;10703;51.020;6.128;2022-08-11T17:35:28;38.10;52.80
21090;DHT22;10703;51.020;6.128;2022-08-11T17:38:04;37.80;53.20
21090;DHT22;10703;51.020;6.128;2022-08-11T17:40:34;37.60;53.30
21090;DHT22;10703;51.020;6.128;2022-08-11T17:43:03;37.40;53.40
21090;DHT22;10703;51.020;6.128;2022-08-11T17:45:49;37.40;53.80
21090;DHT22;10703;51.020;6.128;2022-08-11T17:48:37;37.00;53.70
21090;DHT22;10703;51.020;6.128;2022-08-11T17:51:17;36.70;54.10
21090;DHT22;10703;51.020;6.128;2022-08-11T17:54:06;36.20;54.70
21090;DHT22;10703;51.020;6.128;2022-08-11T17:56:52;36.00;55.40
21090;DHT22;10703;51.020;6.128;2022-08-11T17:59:48;35.70;55.30
21090;DHT22;10703;51.020;6.128;2022-08-11T18:02:30;35.50;55.40
21090;DHT22;10703;51.020;6.128;2022-08-11T18:05:21;35.50;55.50
21090;DHT22;10703;51.020;6.128;2022-08-11T18:07:50;35.30;56.10
21090;DHT22;10703;51.020;6.128;2022-08-11T18:10:38;35.20;56.10
21090;DHT22;10703;51.020;6.128;2022-08-11T18:13:26;34.60;56.50
21090;DHT22;10703;51.020;6.128;2022-08-11T18:16:13;34.50;56.60
21090;DHT22;10703;51.020;6.128;2022-08-11T18:18:58;34.50;57.20
21090;DHT22;10703;51.020;6.128;2022-08-11T18:21:45;34.10;57.30
21090;DHT22;10703;51.020;6.128;2022-08-11T18:24:52;33.60;57.70
21090;DHT22;10703;51.020;6.128;2022-08-11T18:27:43;33.30;58.10
21090;DHT22;10703;51.020;6.128;2022-08-11T18:30:33;33.00;58.20
21090;DHT22;10703;51.020;6.128;2022-08-11T18:33:36;32.80;58.60
21090;DHT22;10703;51.020;6.128;2022-08-11T18:37:00;32.50;58.90
21090;DHT22;10703;51.020;6.128;2022-08-11T18:39:52;32.20;59.50
21090;DHT22;10703;51.020;6.128;2022-08-11T18:42:41;32.00;60.10
21090;DHT22;10703;51.020;6.128;2022-08-11T18:45:28;31.70;60.20
21090;DHT22;10703;51.020;6.128;2022-08-11T18:48:23;31.30;60.60
21090;DHT22;10703;51.020;6.128;2022-08-11T18:51:14;31.00;61.60
21090;DHT22;10703;51.020;6.128;2022-08-11T18:54:08;30.60;62.80
21090;DHT22;10703;51.020;6.128;2022-08-11T18:56:56;30.10;63.20
21090;DHT22;10703;51.020;6.128;2022-08-11T18:59:42;29.60;63.40
21090;DHT22;10703;51.020;6.128;2022-08-11T19:02:30;29.20;64.20
21090;DHT22;10703;51.020;6.128;2022-08-11T19:05:17;28.90;64.40
21090;DHT22;10703;51.020;6.128;2022-08-11T19:08:28;28.70;64.90
21090;DHT22;10703;51.020;6.128;2022-08-11T19:11:15;28.40;65.50
21090;DHT22;10703;51.020;6.128;2022-08-11T19:14:11;28.20;66.10
21090;DHT22;10703;51.020;6.128;2022-08-11T19:16:58;27.90;66.50
21090;DHT22;10703;51.020;6.128;2022-08-11T19:20:06;27.60;66.70
21090;DHT22;10703;51.020;6.128;2022-08-11T19:22:53;27.40;67.70
21090;DHT22;10703;51.020;6.128;2022-08-11T19:25:42;27.10;67.90
21090;DHT22;10703;51.020;6.128;2022-08-11T19:28:29;26.90;68.80
21090;DHT22;10703;51.020;6.128;2022-08-11T19:31:15;26.70;69.10
21090;DHT22;10703;51.020;6.128;2022-08-11T19:34:01;26.60;69.90
21090;DHT22;10703;51.020;6.128;2022-08-11T19:36:48;26.50;70.20
21090;DHT22;10703;51.020;6.128;2022-08-11T19:39:34;26.40;70.90
21090;DHT22;10703;51.020;6.128;2022-08-11T19:42:21;26.30;69.90
21090;DHT22;10703;51.020;6.128;2022-08-11T19:45:07;26.30;70.10